sensor_id;sensor_type;location;lat;lon;timestamp;temperature;humidity
7461;DHT22;6757;52.258;12.840;2022-08-21T00:00:14;18.20;99.90
7461;DHT22;6757;52.258;12.840;2022-08-21T00:02:46;18.10;99.90
7461;DHT22;6757;52.258;12.840;2022-08-21T00:05:14;18.10;99.90
7461;DHT22;6757;52.258;12.840;2022-08-21T00:07:41;18.80;99.90
7461;DHT22;6757;52.258;12.840;2022-08-21T00:10:10;18.10;99.90
7461;DHT22;6757;52.258;12.840;2022-08-21T00:12:38;18.10;99.90
7461;DHT22;6757;52.258;12.840;2022-08-21T00:15:07;18.00;99.90
7461;DHT22;6757;52.258;12.840;2022-08-21T00:17:35;18.00;99.90
7461;DHT22;6757;52.258;12.840;2022-08-21T00:20:04;18.00;99.90
7461;DHT22;6757;52.258;12.840;2022-08-21T00:22:32;18.00;99.90
7461;DHT22;6757;52.258;12.840;2022-08-21T00:24:59;17.90;99.90
7461;DHT22;6757;52.258;12.840;2022-08-21T00:27:27;17.90;99.90
7461;DHT22;6757;52.258;12.840;2022-08-21T00:29:54;17.90;99.90
7461;DHT22;6757;52.258;12.840;2022-08-21T00:32:21;17.80;99.90
7461;DHT22;6757;52.258;12.840;2022-08-21T00:34:49;17.90;99.90
7461;DHT22;6757;52.258;12.840;2022-08-21T00:37:16;17.80;99.90
7461;DHT22;6757;52.258;12.840;2022-08-21T00:39:44;17.80;99.90
7461;DHT22;6757;52.258;12.840;2022-08-21T00:42:11;17.80;99.90
7461;DHT22;6757;52.258;12.840;2022-08-21T00:44:42;17.70;99.90
7461;DHT22;6757;52.258;12.840;2022-08-21T00:47:09;17.70;99.90
7461;DHT22;6757;52.258;12.840;2022-08-21T00:49:36;17.70;99.90
7461;DHT22;6757;52.258;12.840;2022-08-21T00:52:06;17.70;99.90
7461;DHT22;6757;52.258;12.840;2022-08-21T00:54:34;17.70;99.90
7461;DHT22;6757;52.258;12.840;2022-08-21T00:57:06;17.70;99.90
7461;DHT22;6757;52.258;12.840;2022-08-21T00:59:37;17.70;99.90
7461;DHT22;6757;52.258;12.840;2022-08-21T01:02:08;17.70;99.90
7461;DHT22;6757;52.258;12.840;2022-08-21T01:04:35;17.70;99.90
7461;DHT22;6757;52.258;12.840;2022-08-21T01:07:03;18.90;99.90
7461;DHT22;6757;52.258;12.840;2022-08-21T01:09:30;17.70;99.90
7461;DHT22;6757;52.258;12.840;2022-08-21T01:11:57;17.60;99.90
7461;DHT22;6757;52.258;12.840;2022-08-21T01:14:24;17.60;99.90
7461;DHT22;6757;52.258;12.840;2022-08-21T01:16:52;17.60;99.90
7461;DHT22;6757;52.258;12.840;2022-08-21T01:19:22;17.60;99.90
7461;DHT22;6757;52.258;12.840;2022-08-21T01:21:51;17.60;99.90
7461;DHT22;6757;52.258;12.840;2022-08-21T01:24:19;17.60;99.90
7461;DHT22;6757;52.258;12.840;2022-08-21T01:26:47;17.50;99.90
7461;DHT22;6757;52.258;12.840;2022-08-21T01:29:20;17.50;99.90
7461;DHT22;6757;52.258;12.840;2022-08-21T01:31:53;17.50;99.90
7461;DHT22;6757;52.258;12.840;2022-08-21T01:34:20;17.50;99.90
7461;DHT22;6757;52.258;12.840;2022-08-21T01:36:48;17.40;99.90
7461;DHT22;6757;52.258;12.840;2022-08-21T01:39:16;17.40;99.90
7461;DHT22;6757;52.258;12.840;2022-08-21T01:41:43;17.40;99.90
7461;DHT22;6757;52.258;12.840;2022-08-21T01:44:10;18.40;99.90
7461;DHT22;6757;52.258;12.840;2022-08-21T01:46:37;17.30;99.90
7461;DHT22;6757;52.258;12.840;2022-08-21T01:49:05;17.30;99.90
7461;DHT22;6757;52.258;12.840;2022-08-21T01:51:32;17.30;99.90
7461;DHT22;6757;52.258;12.840;2022-08-21T01:53:59;17.20;99.90
7461;DHT22;6757;52.258;12.840;2022-08-21T01:56:28;17.20;99.90
7461;DHT22;6757;52.258;12.840;2022-08-21T01:58:54;17.20;99.90
7461;DHT22;6757;52.258;12.840;2022-08-21T02:01:21;17.10;99.90
7461;DHT22;6757;52.258;12.840;2022-08-21T02:03:48;17.10;99.90
7461;DHT22;6757;52.258;12.840;2022-08-21T02:06:15;17.10;99.90
7461;DHT22;6757;52.258;12.840;2022-08-21T02:08:43;17.10;99.90
7461;DHT22;6757;52.258;12.840;2022-08-21T02:11:11;17.00;99.90
7461;DHT22;6757;52.258;12.840;2022-08-21T02:13:39;17.00;99.90
7461;DHT22;6757;52.258;12.840;2022-08-21T02:16:06;17.00;99.90
7461;DHT22;6757;52.258;12.840;2022-08-21T02:18:33;16.90;99.90
7461;DHT22;6757;52.258;12.840;2022-08-21T02:21:01;16.90;99.90
7461;DHT22;6757;52.258;12.840;2022-08-21T02:23:28;16.90;99.90
7461;DHT22;6757;52.258;12.840;2022-08-21T02:25:56;16.80;99.90
7461;DHT22;6757;52.258;12.840;2022-08-21T02:28:23;16.80;99.90
7461;DHT22;6757;52.258;12.840;2022-08-21T02:30:53;16.70;99.90
7461;DHT22;6757;52.258;12.840;2022-08-21T02:33:21;16.70;99.90
7461;DHT22;6757;52.258;12.840;2022-08-21T02:35:49;16.60;99.90
7461;DHT22;6757;52.258;12.840;2022-08-21T02:38:22;16.60;99.90
7461;DHT22;6757;52.258;12.840;2022-08-21T02:40:52;16.50;99.90
7461;DHT22;6757;52.258;12.840;2022-08-21T02:43:20;16.50;99.90
7461;DHT22;6757;52.258;12.840;2022-08-21T02:45:49;16.50;99.90
7461;DHT22;6757;52.258;12.840;2022-08-21T02:48:20;16.50;99.90
7461;DHT22;6757;52.258;12.840;2022-08-21T02:50:52;16.50;99.90
7461;DHT22;6757;52.258;12.840;2022-08-21T02:53:20;16.40;99.90
7461;DHT22;6757;52.258;12.840;2022-08-21T02:55:49;16.50;99.90
7461;DHT22;6757;52.258;12.840;2022-08-21T02:58:26;16.50;99.90
7461;DHT22;6757;52.258;12.840;2022-08-21T03:00:56;16.50;99.90
7461;DHT22;6757;52.258;12.840;2022-08-21T03:03:26;16.40;99.90
7461;DHT22;6757;52.258;12.840;2022-08-21T03:05:53;16.50;99.90
7461;DHT22;6757;52.258;12.840;2022-08-21T03:08:21;16.50;99.90
7461;DHT22;6757;52.258;12.840;2022-08-21T03:10:50;16.50;99.90
7461;DHT22;6757;52.258;12.840;2022-08-21T03:13:18;16.40;99.90
7461;DHT22;6757;52.258;12.840;2022-08-21T03:15:47;16.40;99.90
7461;DHT22;6757;52.258;12.840;2022-08-21T03:18:15;16.40;99.90
7461;DHT22;6757;52.258;12.840;2022-08-21T03:20:44;16.40;99.90
7461;DHT22;6757;52.258;12.840;2022-08-21T03:23:11;16.30;99.90
7461;DHT22;6757;52.258;12.840;2022-08-21T03:25:39;16.30;99.90
7461;DHT22;6757;52.258;12.840;2022-08-21T03:28:12;16.30;99.90
7461;DHT22;6757;52.258;12.840;2022-08-21T03:30:40;16.20;99.90
7461;DHT22;6757;52.258;12.840;2022-08-21T03:33:07;16.20;99.90
7461;DHT22;6757;52.258;12.840;2022-08-21T03:35:33;16.10;99.90
7461;DHT22;6757;52.258;12.840;2022-08-21T03:38:02;16.10;99.90
7461;DHT22;6757;52.258;12.840;2022-08-21T03:40:29;16.10;99.90
7461;DHT22;6757;52.258;12.840;2022-08-21T03:42:57;16.00;99.90
7461;DHT22;6757;52.258;12.840;2022-08-21T03:45:24;16.00;99.90
7461;DHT22;6757;52.258;12.840;2022-08-21T03:47:53;15.90;99.90
7461;DHT22;6757;52.258;12.840;2022-08-21T03:50:21;15.90;99.90
7461;DHT22;6757;52.258;12.840;2022-08-21T03:52:49;15.90;99.90
7461;DHT22;6757;52.258;12.840;2022-08-21T03:55:17;15.80;99.90
7461;DHT22;6757;52.258;12.840;2022-08-21T03:57:44;15.80;99.90
7461;DHT22;6757;52.258;12.840;2022-08-21T04:00:12;15.70;99.90
7461;DHT22;6757;52.258;12.840;2022-08-21T04:02:41;15.70;99.90
7461;DHT22;6757;52.258;12.840;2022-08-21T04:05:09;15.60;99.90
7461;DHT22;6757;52.258;12.840;2022-08-21T04:07:37;15.60;99.90
7461;DHT22;6757;52.258;12.840;2022-08-21T04:10:05;15.60;99.90
7461;DHT22;6757;52.258;12.840;2022-08-21T04:12:34;15.50;99.90
7461;DHT22;6757;52.258;12.840;2022-08-21T04:15:01;15.50;99.90
7461;DHT22;6757;52.258;12.840;2022-08-21T04:17:28;15.40;99.90
7461;DHT22;6757;52.258;12.840;2022-08-21T04:19:55;15.40;99.90
7461;DHT22;6757;52.258;12.840;2022-08-21T04:22:22;15.40;99.90
7461;DHT22;6757;52.258;12.840;2022-08-21T04:24:49;15.30;99.90
7461;DHT22;6757;52.258;12.840;2022-08-21T04:27:16;15.30;99.90
7461;DHT22;6757;52.258;12.840;2022-08-21T04:29:44;15.20;99.90
7461;DHT22;6757;52.258;12.840;2022-08-21T04:32:11;15.20;99.90
7461;DHT22;6757;52.258;12.840;2022-08-21T04:34:38;15.20;99.90
7461;DHT22;6757;52.258;12.840;2022-08-21T04:37:05;15.10;99.90
7461;DHT22;6757;52.258;12.840;2022-08-21T04:39:32;15.10;99.90
7461;DHT22;6757;52.258;12.840;2022-08-21T04:41:59;15.10;99.90
7461;DHT22;6757;52.258;12.840;2022-08-21T04:44:25;15.10;99.90
7461;DHT22;6757;52.258;12.840;2022-08-21T04:46:54;15.10;99.90
7461;DHT22;6757;52.258;12.840;2022-08-21T04:49:20;15.00;99.90
7461;DHT22;6757;52.258;12.840;2022-08-21T04:51:47;15.10;99.90
7461;DHT22;6757;52.258;12.840;2022-08-21T04:54:19;15.10;99.90
7461;DHT22;6757;52.258;12.840;2022-08-21T04:56:51;15.10;99.90
7461;DHT22;6757;52.258;12.840;2022-08-21T04:59:22;15.10;99.90
7461;DHT22;6757;52.258;12.840;2022-08-21T05:01:52;15.10;99.90
7461;DHT22;6757;52.258;12.840;2022-08-21T05:04:25;15.10;99.90
7461;DHT22;6757;52.258;12.840;2022-08-21T05:06:54;15.10;99.90
7461;DHT22;6757;52.258;12.840;2022-08-21T05:09:24;15.20;99.90
7461;DHT22;6757;52.258;12.840;2022-08-21T05:11:51;15.20;99.90
7461;DHT22;6757;52.258;12.840;2022-08-21T05:14:18;15.20;99.90
7461;DHT22;6757;52.258;12.840;2022-08-21T05:16:46;15.20;99.90
7461;DHT22;6757;52.258;12.840;2022-08-21T05:19:14;15.20;99.90
7461;DHT22;6757;52.258;12.840;2022-08-21T05:21:43;15.20;99.90
7461;DHT22;6757;52.258;12.840;2022-08-21T05:24:11;15.30;99.90
7461;DHT22;6757;52.258;12.840;2022-08-21T05:26:38;15.20;99.90
7461;DHT22;6757;52.258;12.840;2022-08-21T05:29:05;15.30;99.90
7461;DHT22;6757;52.258;12.840;2022-08-21T05:31:33;15.30;99.90
7461;DHT22;6757;52.258;12.840;2022-08-21T05:34:00;15.40;99.90
7461;DHT22;6757;52.258;12.840;2022-08-21T05:36:28;15.40;99.90
7461;DHT22;6757;52.258;12.840;2022-08-21T05:38:55;15.40;99.90
7461;DHT22;6757;52.258;12.840;2022-08-21T05:41:22;15.50;99.90
7461;DHT22;6757;52.258;12.840;2022-08-21T05:43:49;16.90;99.90
7461;DHT22;6757;52.258;12.840;2022-08-21T05:46:16;15.60;99.90
7461;DHT22;6757;52.258;12.840;2022-08-21T05:48:42;15.60;99.90
7461;DHT22;6757;52.258;12.840;2022-08-21T05:51:15;15.60;99.90
7461;DHT22;6757;52.258;12.840;2022-08-21T05:53:45;15.70;99.90
7461;DHT22;6757;52.258;12.840;2022-08-21T05:56:13;15.70;99.90
7461;DHT22;6757;52.258;12.840;2022-08-21T05:58:41;15.70;99.90
7461;DHT22;6757;52.258;12.840;2022-08-21T06:01:08;15.80;99.90
7461;DHT22;6757;52.258;12.840;2022-08-21T06:03:38;15.90;99.90
7461;DHT22;6757;52.258;12.840;2022-08-21T06:06:06;15.90;99.90
7461;DHT22;6757;52.258;12.840;2022-08-21T06:08:33;16.00;99.90
7461;DHT22;6757;52.258;12.840;2022-08-21T06:11:03;16.00;99.90
7461;DHT22;6757;52.258;12.840;2022-08-21T06:13:31;16.10;99.90
7461;DHT22;6757;52.258;12.840;2022-08-21T06:16:05;16.10;99.90
7461;DHT22;6757;52.258;12.840;2022-08-21T06:18:34;16.20;99.90
7461;DHT22;6757;52.258;12.840;2022-08-21T06:21:01;16.20;99.90
7461;DHT22;6757;52.258;12.840;2022-08-21T06:23:29;16.30;99.90
7461;DHT22;6757;52.258;12.840;2022-08-21T06:25:57;16.30;99.90
7461;DHT22;6757;52.258;12.840;2022-08-21T06:28:25;16.40;99.90
7461;DHT22;6757;52.258;12.840;2022-08-21T06:30:52;16.40;99.90
7461;DHT22;6757;52.258;12.840;2022-08-21T06:33:19;16.50;99.90
7461;DHT22;6757;52.258;12.840;2022-08-21T06:35:46;17.30;99.90
7461;DHT22;6757;52.258;12.840;2022-08-21T06:38:13;16.60;99.90
7461;DHT22;6757;52.258;12.840;2022-08-21T06:40:41;16.70;99.90
7461;DHT22;6757;52.258;12.840;2022-08-21T06:43:10;16.70;99.90
7461;DHT22;6757;52.258;12.840;2022-08-21T06:45:39;16.80;99.90
7461;DHT22;6757;52.258;12.840;2022-08-21T06:48:06;16.90;99.90
7461;DHT22;6757;52.258;12.840;2022-08-21T06:50:34;17.00;99.90
7461;DHT22;6757;52.258;12.840;2022-08-21T06:53:02;17.10;99.90
7461;DHT22;6757;52.258;12.840;2022-08-21T06:55:31;17.20;99.90
7461;DHT22;6757;52.258;12.840;2022-08-21T06:57:58;17.30;99.90
7461;DHT22;6757;52.258;12.840;2022-08-21T07:00:26;17.30;99.90
7461;DHT22;6757;52.258;12.840;2022-08-21T07:02:54;17.40;99.90
7461;DHT22;6757;52.258;12.840;2022-08-21T07:05:22;17.50;99.90
7461;DHT22;6757;52.258;12.840;2022-08-21T07:07:51;17.60;99.90
7461;DHT22;6757;52.258;12.840;2022-08-21T07:10:18;17.70;99.90
7461;DHT22;6757;52.258;12.840;2022-08-21T07:12:45;17.80;99.90
7461;DHT22;6757;52.258;12.840;2022-08-21T07:15:12;17.90;99.90
7461;DHT22;6757;52.258;12.840;2022-08-21T07:17:39;18.00;99.90
7461;DHT22;6757;52.258;12.840;2022-08-21T07:20:09;18.00;99.90
7461;DHT22;6757;52.258;12.840;2022-08-21T07:22:38;18.10;99.90
7461;DHT22;6757;52.258;12.840;2022-08-21T07:25:06;18.20;99.90
7461;DHT22;6757;52.258;12.840;2022-08-21T07:27:33;18.20;99.90
7461;DHT22;6757;52.258;12.840;2022-08-21T07:30:00;18.30;99.90
7461;DHT22;6757;52.258;12.840;2022-08-21T07:32:27;18.40;99.90
7461;DHT22;6757;52.258;12.840;2022-08-21T07:34:54;18.50;99.90
7461;DHT22;6757;52.258;12.840;2022-08-21T07:37:23;18.50;99.90
7461;DHT22;6757;52.258;12.840;2022-08-21T07:39:50;18.60;99.90
7461;DHT22;6757;52.258;12.840;2022-08-21T07:42:17;18.70;99.90
7461;DHT22;6757;52.258;12.840;2022-08-21T07:44:44;18.80;99.90
7461;DHT22;6757;52.258;12.840;2022-08-21T07:47:11;18.90;99.90
7461;DHT22;6757;52.258;12.840;2022-08-21T07:49:38;19.00;99.90
7461;DHT22;6757;52.258;12.840;2022-08-21T07:52:05;19.10;99.90
7461;DHT22;6757;52.258;12.840;2022-08-21T07:54:34;19.50;99.90
7461;DHT22;6757;52.258;12.840;2022-08-21T07:57:01;19.20;99.90
7461;DHT22;6757;52.258;12.840;2022-08-21T07:59:28;19.30;99.90
7461;DHT22;6757;52.258;12.840;2022-08-21T08:01:55;19.40;99.90
7461;DHT22;6757;52.258;12.840;2022-08-21T08:04:22;19.50;99.90
7461;DHT22;6757;52.258;12.840;2022-08-21T08:06:49;19.60;99.90
7461;DHT22;6757;52.258;12.840;2022-08-21T08:09:16;19.60;99.90
7461;DHT22;6757;52.258;12.840;2022-08-21T08:11:45;19.60;99.90
7461;DHT22;6757;52.258;12.840;2022-08-21T08:14:12;19.70;99.90
7461;DHT22;6757;52.258;12.840;2022-08-21T08:16:41;19.80;99.90
7461;DHT22;6757;52.258;12.840;2022-08-21T08:19:09;19.80;99.90
7461;DHT22;6757;52.258;12.840;2022-08-21T08:21:36;19.90;99.90
7461;DHT22;6757;52.258;12.840;2022-08-21T08:24:04;19.90;99.90
7461;DHT22;6757;52.258;12.840;2022-08-21T08:26:31;20.00;99.90
7461;DHT22;6757;52.258;12.840;2022-08-21T08:28:59;20.10;99.90
7461;DHT22;6757;52.258;12.840;2022-08-21T08:31:26;20.10;99.90
7461;DHT22;6757;52.258;12.840;2022-08-21T08:33:53;20.10;99.90
7461;DHT22;6757;52.258;12.840;2022-08-21T08:36:31;20.20;99.90
7461;DHT22;6757;52.258;12.840;2022-08-21T08:39:00;20.20;99.90
7461;DHT22;6757;52.258;12.840;2022-08-21T08:41:27;20.30;99.90
7461;DHT22;6757;52.258;12.840;2022-08-21T08:44:01;20.40;99.90
7461;DHT22;6757;52.258;12.840;2022-08-21T08:46:34;20.50;99.90
7461;DHT22;6757;52.258;12.840;2022-08-21T08:49:08;20.50;99.90
7461;DHT22;6757;52.258;12.840;2022-08-21T08:51:44;20.60;99.90
7461;DHT22;6757;52.258;12.840;2022-08-21T08:54:15;20.70;99.90
7461;DHT22;6757;52.258;12.840;2022-08-21T08:56:44;20.70;99.90
7461;DHT22;6757;52.258;12.840;2022-08-21T08:59:17;20.80;99.90
7461;DHT22;6757;52.258;12.840;2022-08-21T09:01:45;20.80;99.90
7461;DHT22;6757;52.258;12.840;2022-08-21T09:04:23;20.80;99.90
7461;DHT22;6757;52.258;12.840;2022-08-21T09:07:01;20.90;99.90
7461;DHT22;6757;52.258;12.840;2022-08-21T09:09:48;20.90;99.90
7461;DHT22;6757;52.258;12.840;2022-08-21T09:12:29;21.00;99.90
7461;DHT22;6757;52.258;12.840;2022-08-21T09:15:09;21.10;99.90
7461;DHT22;6757;52.258;12.840;2022-08-21T09:21:00;21.20;99.90
7461;DHT22;6757;52.258;12.840;2022-08-21T09:23:42;21.30;99.90
7461;DHT22;6757;52.258;12.840;2022-08-21T09:26:15;21.40;99.90
7461;DHT22;6757;52.258;12.840;2022-08-21T09:28:45;21.50;99.90
7461;DHT22;6757;52.258;12.840;2022-08-21T09:31:21;21.50;99.90
7461;DHT22;6757;52.258;12.840;2022-08-21T09:33:56;21.60;99.90
7461;DHT22;6757;52.258;12.840;2022-08-21T09:36:30;21.70;99.90
7461;DHT22;6757;52.258;12.840;2022-08-21T09:39:00;21.70;99.90
7461;DHT22;6757;52.258;12.840;2022-08-21T09:41:31;21.80;99.90
7461;DHT22;6757;52.258;12.840;2022-08-21T09:44:01;21.80;99.90
7461;DHT22;6757;52.258;12.840;2022-08-21T09:46:30;21.80;99.90
7461;DHT22;6757;52.258;12.840;2022-08-21T09:48:59;21.80;99.90
7461;DHT22;6757;52.258;12.840;2022-08-21T09:51:29;21.80;99.90
7461;DHT22;6757;52.258;12.840;2022-08-21T09:54:14;21.90;99.90
7461;DHT22;6757;52.258;12.840;2022-08-21T09:56:53;21.90;99.90
7461;DHT22;6757;52.258;12.840;2022-08-21T09:59:40;22.00;99.90
7461;DHT22;6757;52.258;12.840;2022-08-21T10:02:24;22.10;99.90
7461;DHT22;6757;52.258;12.840;2022-08-21T10:04:55;22.20;99.90
7461;DHT22;6757;52.258;12.840;2022-08-21T10:07:25;22.20;99.90
7461;DHT22;6757;52.258;12.840;2022-08-21T10:10:02;22.30;99.90
7461;DHT22;6757;52.258;12.840;2022-08-21T10:12:40;22.40;99.90
7461;DHT22;6757;52.258;12.840;2022-08-21T10:15:18;22.50;99.90
7461;DHT22;6757;52.258;12.840;2022-08-21T10:17:58;22.50;99.90
7461;DHT22;6757;52.258;12.840;2022-08-21T10:20:37;22.60;99.90
7461;DHT22;6757;52.258;12.840;2022-08-21T10:23:28;22.60;99.90
7461;DHT22;6757;52.258;12.840;2022-08-21T10:26:07;22.60;99.90
7461;DHT22;6757;52.258;12.840;2022-08-21T10:28:39;22.70;99.90
7461;DHT22;6757;52.258;12.840;2022-08-21T10:31:18;22.80;99.90
7461;DHT22;6757;52.258;12.840;2022-08-21T10:33:54;22.80;99.90
7461;DHT22;6757;52.258;12.840;2022-08-21T10:36:42;22.90;99.90
7461;DHT22;6757;52.258;12.840;2022-08-21T10:39:21;22.80;99.90
7461;DHT22;6757;52.258;12.840;2022-08-21T10:42:06;22.90;99.90
7461;DHT22;6757;52.258;12.840;2022-08-21T10:44:46;23.00;99.90
7461;DHT22;6757;52.258;12.840;2022-08-21T10:47:27;23.00;99.90
7461;DHT22;6757;52.258;12.840;2022-08-21T10:50:04;23.00;99.90
7461;DHT22;6757;52.258;12.840;2022-08-21T10:52:53;23.00;99.90
7461;DHT22;6757;52.258;12.840;2022-08-21T10:55:31;23.10;99.90
7461;DHT22;6757;52.258;12.840;2022-08-21T10:58:04;23.10;99.90
7461;DHT22;6757;52.258;12.840;2022-08-21T11:00:40;23.30;99.90
7461;DHT22;6757;52.258;12.840;2022-08-21T11:03:13;23.10;99.90
7461;DHT22;6757;52.258;12.840;2022-08-21T11:05:48;23.10;99.90
7461;DHT22;6757;52.258;12.840;2022-08-21T11:08:22;23.20;99.90
7461;DHT22;6757;52.258;12.840;2022-08-21T11:10:53;23.20;99.90
7461;DHT22;6757;52.258;12.840;2022-08-21T11:13:27;23.20;99.90
7461;DHT22;6757;52.258;12.840;2022-08-21T11:16:03;23.30;99.90
7461;DHT22;6757;52.258;12.840;2022-08-21T11:18:37;23.40;99.90
7461;DHT22;6757;52.258;12.840;2022-08-21T11:21:29;23.40;99.90
7461;DHT22;6757;52.258;12.840;2022-08-21T11:24:06;23.50;99.90
7461;DHT22;6757;52.258;12.840;2022-08-21T11:26:45;23.50;99.90
7461;DHT22;6757;52.258;12.840;2022-08-21T11:29:21;23.60;99.90
7461;DHT22;6757;52.258;12.840;2022-08-21T11:32:02;23.70;99.90
7461;DHT22;6757;52.258;12.840;2022-08-21T11:34:46;23.70;99.90
7461;DHT22;6757;52.258;12.840;2022-08-21T11:37:39;23.70;99.50
7461;DHT22;6757;52.258;12.840;2022-08-21T11:40:17;23.60;98.60
7461;DHT22;6757;52.258;12.840;2022-08-21T11:42:58;23.60;98.30
7461;DHT22;6757;52.258;12.840;2022-08-21T11:45:38;23.70;98.30
7461;DHT22;6757;52.258;12.840;2022-08-21T11:48:15;23.70;98.00
7461;DHT22;6757;52.258;12.840;2022-08-21T11:50:47;23.80;97.20
7461;DHT22;6757;52.258;12.840;2022-08-21T11:53:21;23.80;97.00
7461;DHT22;6757;52.258;12.840;2022-08-21T11:55:55;23.90;97.00
7461;DHT22;6757;52.258;12.840;2022-08-21T11:58:27;24.20;97.10
7461;DHT22;6757;52.258;12.840;2022-08-21T12:00:59;24.10;97.10
7461;DHT22;6757;52.258;12.840;2022-08-21T12:03:29;24.20;96.90
7461;DHT22;6757;52.258;12.840;2022-08-21T12:05:59;24.30;96.50
7461;DHT22;6757;52.258;12.840;2022-08-21T12:08:30;24.30;95.90
7461;DHT22;6757;52.258;12.840;2022-08-21T12:11:04;24.30;95.50
7461;DHT22;6757;52.258;12.840;2022-08-21T12:13:35;24.30;95.40
7461;DHT22;6757;52.258;12.840;2022-08-21T12:16:09;24.30;95.50
7461;DHT22;6757;52.258;12.840;2022-08-21T12:18:37;24.30;95.50
7461;DHT22;6757;52.258;12.840;2022-08-21T12:21:17;25.00;95.80
7461;DHT22;6757;52.258;12.840;2022-08-21T12:24:02;24.40;95.50
7461;DHT22;6757;52.258;12.840;2022-08-21T12:26:33;24.50;95.60
7461;DHT22;6757;52.258;12.840;2022-08-21T12:29:14;24.60;95.60
7461;DHT22;6757;52.258;12.840;2022-08-21T12:31:56;24.70;95.60
7461;DHT22;6757;52.258;12.840;2022-08-21T12:34:32;24.80;95.50
7461;DHT22;6757;52.258;12.840;2022-08-21T12:37:02;24.90;95.50
7461;DHT22;6757;52.258;12.840;2022-08-21T12:39:36;25.00;95.60
7461;DHT22;6757;52.258;12.840;2022-08-21T12:42:07;25.10;95.20
7461;DHT22;6757;52.258;12.840;2022-08-21T12:44:45;25.20;95.00
7461;DHT22;6757;52.258;12.840;2022-08-21T12:47:16;25.20;94.70
7461;DHT22;6757;52.258;12.840;2022-08-21T12:49:52;25.30;94.60
7461;DHT22;6757;52.258;12.840;2022-08-21T12:52:24;25.40;94.40
7461;DHT22;6757;52.258;12.840;2022-08-21T12:54:56;25.50;94.50
7461;DHT22;6757;52.258;12.840;2022-08-21T12:57:25;25.60;94.10
7461;DHT22;6757;52.258;12.840;2022-08-21T12:59:55;25.70;93.70
7461;DHT22;6757;52.258;12.840;2022-08-21T13:02:26;25.70;93.40
7461;DHT22;6757;52.258;12.840;2022-08-21T13:04:56;25.90;93.20
7461;DHT22;6757;52.258;12.840;2022-08-21T13:07:27;26.10;93.00
7461;DHT22;6757;52.258;12.840;2022-08-21T13:10:01;26.20;92.60
7461;DHT22;6757;52.258;12.840;2022-08-21T13:12:31;26.30;92.20
7461;DHT22;6757;52.258;12.840;2022-08-21T13:15:04;26.40;91.90
7461;DHT22;6757;52.258;12.840;2022-08-21T13:17:36;26.40;91.60
7461;DHT22;6757;52.258;12.840;2022-08-21T13:20:07;26.50;91.40
7461;DHT22;6757;52.258;12.840;2022-08-21T13:22:41;26.50;91.10
7461;DHT22;6757;52.258;12.840;2022-08-21T13:25:12;26.40;90.90
7461;DHT22;6757;52.258;12.840;2022-08-21T13:27:42;26.30;90.80
7461;DHT22;6757;52.258;12.840;2022-08-21T13:30:18;26.20;90.70
7461;DHT22;6757;52.258;12.840;2022-08-21T13:32:49;26.00;90.60
7461;DHT22;6757;52.258;12.840;2022-08-21T13:35:18;25.90;90.50
7461;DHT22;6757;52.258;12.840;2022-08-21T13:37:49;25.90;90.40
7461;DHT22;6757;52.258;12.840;2022-08-21T13:40:22;25.70;90.10
7461;DHT22;6757;52.258;12.840;2022-08-21T13:42:52;25.70;90.10
7461;DHT22;6757;52.258;12.840;2022-08-21T13:45:23;25.60;90.20
7461;DHT22;6757;52.258;12.840;2022-08-21T13:47:51;25.50;90.30
7461;DHT22;6757;52.258;12.840;2022-08-21T13:50:21;25.50;90.50
7461;DHT22;6757;52.258;12.840;2022-08-21T13:52:57;25.40;90.40
7461;DHT22;6757;52.258;12.840;2022-08-21T13:55:34;25.40;90.50
7461;DHT22;6757;52.258;12.840;2022-08-21T13:58:04;25.40;90.50
7461;DHT22;6757;52.258;12.840;2022-08-21T14:00:33;25.40;90.60
7461;DHT22;6757;52.258;12.840;2022-08-21T14:03:06;25.50;90.60
7461;DHT22;6757;52.258;12.840;2022-08-21T14:05:37;25.60;90.50
7461;DHT22;6757;52.258;12.840;2022-08-21T14:08:13;25.80;90.50
7461;DHT22;6757;52.258;12.840;2022-08-21T14:10:46;25.90;90.40
7461;DHT22;6757;52.258;12.840;2022-08-21T14:13:32;26.10;90.40
7461;DHT22;6757;52.258;12.840;2022-08-21T14:16:08;26.30;90.50
7461;DHT22;6757;52.258;12.840;2022-08-21T14:18:52;26.50;90.10
7461;DHT22;6757;52.258;12.840;2022-08-21T14:21:32;26.70;89.80
7461;DHT22;6757;52.258;12.840;2022-08-21T14:24:07;26.90;89.00
7461;DHT22;6757;52.258;12.840;2022-08-21T14:26:45;27.00;88.40
7461;DHT22;6757;52.258;12.840;2022-08-21T14:29:16;27.30;87.90
7461;DHT22;6757;52.258;12.840;2022-08-21T14:31:49;27.70;87.20
7461;DHT22;6757;52.258;12.840;2022-08-21T14:34:18;28.10;86.10
7461;DHT22;6757;52.258;12.840;2022-08-21T14:36:46;28.60;84.90
7461;DHT22;6757;52.258;12.840;2022-08-21T14:39:14;29.10;83.30
7461;DHT22;6757;52.258;12.840;2022-08-21T14:41:43;29.30;81.70
7461;DHT22;6757;52.258;12.840;2022-08-21T14:44:14;29.70;80.50
7461;DHT22;6757;52.258;12.840;2022-08-21T14:46:42;30.20;79.70
7461;DHT22;6757;52.258;12.840;2022-08-21T14:49:09;29.80;78.80
7461;DHT22;6757;52.258;12.840;2022-08-21T14:51:36;29.60;78.30
7461;DHT22;6757;52.258;12.840;2022-08-21T14:54:04;29.40;78.10
7461;DHT22;6757;52.258;12.840;2022-08-21T14:56:32;29.20;78.20
7461;DHT22;6757;52.258;12.840;2022-08-21T14:59:04;28.90;78.30
7461;DHT22;6757;52.258;12.840;2022-08-21T15:01:36;28.60;78.50
7461;DHT22;6757;52.258;12.840;2022-08-21T15:04:03;28.40;78.70
7461;DHT22;6757;52.258;12.840;2022-08-21T15:06:31;28.30;78.90
7461;DHT22;6757;52.258;12.840;2022-08-21T15:08:58;28.00;79.00
7461;DHT22;6757;52.258;12.840;2022-08-21T15:11:25;27.90;79.20
7461;DHT22;6757;52.258;12.840;2022-08-21T15:13:57;28.50;79.80
7461;DHT22;6757;52.258;12.840;2022-08-21T15:16:29;27.70;79.30
7461;DHT22;6757;52.258;12.840;2022-08-21T15:18:56;27.60;79.40
7461;DHT22;6757;52.258;12.840;2022-08-21T15:21:23;27.50;79.50
7461;DHT22;6757;52.258;12.840;2022-08-21T15:23:50;27.40;79.70
7461;DHT22;6757;52.258;12.840;2022-08-21T15:26:18;27.30;79.90
7461;DHT22;6757;52.258;12.840;2022-08-21T15:28:45;27.30;80.30
7461;DHT22;6757;52.258;12.840;2022-08-21T15:31:12;27.80;80.80
7461;DHT22;6757;52.258;12.840;2022-08-21T15:33:40;27.50;80.30
7461;DHT22;6757;52.258;12.840;2022-08-21T15:36:07;27.60;80.10
7461;DHT22;6757;52.258;12.840;2022-08-21T15:38:34;27.80;79.70
7461;DHT22;6757;52.258;12.840;2022-08-21T15:41:02;28.10;79.20
7461;DHT22;6757;52.258;12.840;2022-08-21T15:43:33;28.40;78.60
7461;DHT22;6757;52.258;12.840;2022-08-21T15:46:02;29.00;78.00
7461;DHT22;6757;52.258;12.840;2022-08-21T15:48:31;29.10;77.00
7461;DHT22;6757;52.258;12.840;2022-08-21T15:50:59;29.70;76.60
7461;DHT22;6757;52.258;12.840;2022-08-21T15:53:26;30.10;75.90
7461;DHT22;6757;52.258;12.840;2022-08-21T15:55:54;29.50;74.80
7461;DHT22;6757;52.258;12.840;2022-08-21T15:58:21;29.80;74.30
7461;DHT22;6757;52.258;12.840;2022-08-21T16:00:49;30.00;73.70
7461;DHT22;6757;52.258;12.840;2022-08-21T16:03:16;30.20;73.00
7461;DHT22;6757;52.258;12.840;2022-08-21T16:05:47;30.40;72.30
7461;DHT22;6757;52.258;12.840;2022-08-21T16:08:19;30.50;71.80